Time;durP1;ratioP1;P1;durP2;ratioP2;P2;SDS_P1;SDS_P2;PMS_P1;PMS_P2;Temp;Humidity;BMP_temperature;BMP_pressure;BME280_temperature;BME280_humidity;BME280_pressure;Samples;Min_cycle;Max_cycle;Signal;HPM_P1;HPM_P2
2022/08/14 00:01:33;;;;;;;10.52;7.43;;;;;;;-148.88;60.64;74485.59;5000639;28;20476;-79
2022/08/14 00:03:58;;;;;;;9.85;7.72;;;;;;;-148.88;60.76;74487.63;4999071;28;20036;-79
2022/08/14 00:06:23;;;;;;;10.05;7.90;;;;;;;-148.88;61.35;74499.81;5000393;28;20033;-79
2022/08/14 00:08:49;;;;;;;9.57;7.97;;;;;;;-148.88;61.21;74493.72;4998847;28;20053;-79
2022/08/14 00:11:14;;;;;;;11.45;8.00;;;;;;;-148.88;61.66;74491.69;5000492;28;20030;-79
2022/08/14 00:13:39;;;;;;;9.75;8.35;;;;;;;-148.88;61.67;74497.78;5001778;28;20109;-79
2022/08/14 00:16:05;;;;;;;12.90;8.27;;;;;;;-148.88;62.12;74501.81;5000127;28;20022;-79
2022/08/14 00:18:30;;;;;;;12.88;8.30;;;;;;;-148.88;62.32;74505.88;4997673;28;20022;-79
2022/08/14 00:20:56;;;;;;;10.25;8.68;;;;;;;-148.88;62.60;74503.84;4993316;28;20026;-78
2022/08/14 00:23:23;;;;;;;11.00;8.25;;;;;;;-148.88;62.82;74514.00;4995263;28;20045;-79
2022/08/14 00:25:51;;;;;;;9.90;7.88;;;;;;;-148.88;63.14;74514.00;4997624;28;20034;-79
2022/08/14 00:28:16;;;;;;;11.68;8.25;;;;;;;-148.88;63.09;74524.16;4997729;28;20044;-79
2022/08/14 00:30:42;;;;;;;11.00;8.30;;;;;;;-148.88;63.10;74518.06;4997653;28;20489;-79
2022/08/14 00:33:07;;;;;;;11.90;8.32;;;;;;;-148.88;62.76;74514.00;4997729;28;20353;-79
2022/08/14 00:35:34;;;;;;;10.15;7.88;;;;;;;-148.88;63.38;74514.00;4997784;28;20045;-79
2022/08/14 00:37:59;;;;;;;10.70;7.88;;;;;;;-148.88;63.25;74522.13;4996451;28;20026;-79
2022/08/14 00:40:25;;;;;;;9.27;7.90;;;;;;;-148.88;63.23;74520.09;4996257;28;20033;-79
2022/08/14 00:42:50;;;;;;;9.25;7.50;;;;;;;-148.88;63.23;74522.13;5004640;23;20053;-78
2022/08/14 00:45:16;;;;;;;9.27;7.53;;;;;;;-148.88;63.28;74516.03;4997317;28;20037;-77
2022/08/14 00:47:44;;;;;;;12.35;7.93;;;;;;;-148.88;63.71;74520.09;4997946;28;20026;-78
2022/08/14 00:50:11;;;;;;;10.98;8.30;;;;;;;-148.88;64.00;74520.09;4997255;28;20026;-78
2022/08/14 00:52:37;;;;;;;10.93;8.50;;;;;;;-148.88;64.63;74538.38;4998106;28;20086;-77
2022/08/14 00:55:05;;;;;;;14.68;9.20;;;;;;;-148.88;65.21;74546.50;4996288;28;20061;-78
2022/08/14 00:57:32;;;;;;;14.68;9.65;;;;;;;-148.88;66.54;74595.25;4996070;28;20042;-78
2022/08/14 00:59:59;;;;;;;14.02;9.65;;;;;;;-148.88;68.57;74611.47;4997511;28;20054;-77
2022/08/14 01:02:27;;;;;;;10.68;8.90;;;;;;;-148.88;68.68;74601.31;4996088;28;20049;-78
2022/08/14 01:04:56;;;;;;;10.77;8.73;;;;;;;-148.88;67.90;74591.19;4997966;28;20026;-78
2022/08/14 01:07:24;;;;;;;11.60;9.63;;;;;;;-148.88;68.14;74583.06;4998952;28;20093;-78
2022/08/14 01:09:53;;;;;;;11.98;9.27;;;;;;;-148.88;67.91;74581.03;4997747;28;20033;-78
2022/08/14 01:12:20;;;;;;;11.90;9.00;;;;;;;-148.88;67.78;74581.03;4998148;28;20045;-78
2022/08/14 01:14:45;;;;;;;11.13;8.68;;;;;;;-148.88;67.98;74574.94;4997186;28;20018;-78
2022/08/14 01:17:11;;;;;;;12.18;8.82;;;;;;;-148.88;67.16;74568.84;4996420;28;20075;-78
2022/08/14 01:22:21;;;;;;;10.80;8.88;;;;;;;-148.88;67.16;74564.78;4996674;28;20080;-78
2022/08/14 01:24:47;;;;;;;9.77;8.43;;;;;;;-148.88;67.40;74562.75;4996809;28;20027;-78
2022/08/14 01:27:17;;;;;;;10.50;8.88;;;;;;;-148.88;67.71;74562.75;4996930;28;20046;-78
2022/08/14 01:29:45;;;;;;;12.20;8.80;;;;;;;-148.88;67.64;74566.81;4999765;28;20030;-78
2022/08/14 01:32:11;;;;;;;11.02;8.65;;;;;;;-148.88;67.61;74564.78;5000451;28;20568;-78
2022/08/14 01:34:36;;;;;;;12.13;8.88;;;;;;;-148.88;67.93;74566.81;4999376;28;20053;-78
2022/08/14 01:37:03;;;;;;;10.45;8.18;;;;;;;-148.88;67.96;74564.78;4998044;28;20432;-78
2022/08/14 01:39:29;;;;;;;10.30;8.77;;;;;;;-148.88;67.78;74566.81;5000357;28;20026;-77
2022/08/14 01:41:57;;;;;;;10.45;8.93;;;;;;;-148.88;68.24;74566.81;5001852;28;20026;-78
2022/08/14 01:44:25;;;;;;;12.93;9.13;;;;;;;-148.88;68.61;74570.88;5000503;28;20140;-78
2022/08/14 01:46:53;;;;;;;10.30;8.80;;;;;;;-148.88;69.13;74579.00;5000048;28;20076;-78
2022/08/14 01:49:19;;;;;;;12.40;8.77;;;;;;;-148.88;68.86;74576.97;5002102;28;20041;-79
2022/08/14 01:51:47;;;;;;;11.85;10.18;;;;;;;-148.88;68.93;74570.88;5002320;28;20036;-78
2022/08/14 01:54:21;;;;;;;10.90;9.27;;;;;;;-148.88;69.12;74570.88;5002591;28;20022;-78
2022/08/14 01:56:50;;;;;;;14.60;9.65;;;;;;;-148.88;68.99;74570.88;4998536;28;20109;-78
2022/08/14 01:59:31;;;;;;;11.00;9.35;;;;;;;-148.88;69.04;74570.88;4998866;28;20030;-78
2022/08/14 02:02:00;;;;;;;12.27;9.32;;;;;;;-148.88;69.21;74572.91;5000409;28;20077;-78
2022/08/14 02:04:32;;;;;;;11.07;9.27;;;;;;;-148.88;69.76;74579.00;5000253;28;20026;-78
2022/08/14 02:06:57;;;;;;;10.07;8.70;;;;;;;-148.88;69.40;74576.97;4998977;28;20029;-78
2022/08/14 02:09:23;;;;;;;11.90;9.18;;;;;;;-148.88;69.83;74581.03;4999630;28;20150;-78
2022/08/14 02:12:08;;;;;;;10.95;9.45;;;;;;;-148.88;70.31;74587.13;4999041;28;20069;-77
2022/08/14 02:14:35;;;;;;;11.95;9.52;;;;;;;-148.88;70.67;74587.13;5007508;23;20493;-86
2022/08/14 02:17:01;;;;;;;11.63;9.95;;;;;;;-148.88;71.02;74595.25;4996191;28;20033;-86
2022/08/14 02:19:29;;;;;;;13.80;10.48;;;;;;;-148.88;71.15;74593.22;5011474;28;20026;-86
2022/08/14 02:21:57;;;;;;;13.27;9.85;;;;;;;-148.88;71.40;74595.25;4994983;28;20026;-85
2022/08/14 02:24:24;;;;;;;13.25;9.73;;;;;;;-148.88;71.26;74589.16;4994793;28;20026;-86
2022/08/14 02:26:50;;;;;;;16.73;10.13;;;;;;;-148.88;71.55;74591.19;4994925;28;20026;-86
2022/08/14 02:29:21;;;;;;;11.73;10.07;;;;;;;-148.88;71.69;74595.25;4995950;28;20044;-86
2022/08/14 02:31:50;;;;;;;10.45;8.73;;;;;;;-148.88;71.70;74595.25;4996284;28;20054;-86
2022/08/14 02:34:21;;;;;;;11.85;8.68;;;;;;;-148.88;71.35;74595.25;4995910;28;20030;-86
2022/08/14 02:36:51;;;;;;;10.68;9.07;;;;;;;-148.88;71.73;74595.25;4995970;28;20041;-87
2022/08/14 02:39:18;;;;;;;11.02;8.98;;;;;;;-148.88;71.78;74599.28;4994036;28;20030;-86
2022/08/14 02:41:47;;;;;;;10.05;8.93;;;;;;;-148.88;71.94;74603.34;4995227;28;20055;-86
2022/08/14 02:44:12;;;;;;;10.75;9.18;;;;;;;-148.88;72.27;74609.44;4995738;28;20018;-86
2022/08/14 02:46:43;;;;;;;10.20;8.70;;;;;;;-148.88;72.44;74611.47;4994434;28;20073;-86
2022/08/14 02:49:09;;;;;;;10.90;8.90;;;;;;;-148.88;72.79;74603.34;4994549;28;20029;-86
2022/08/14 02:51:35;;;;;;;11.73;9.32;;;;;;;-148.88;73.14;74611.47;4995667;28;20028;-86
2022/08/14 02:54:01;;;;;;;12.55;9.23;;;;;;;-148.88;73.34;74611.47;4994471;28;20113;-87
2022/08/14 02:56:27;;;;;;;12.27;9.40;;;;;;;-148.88;73.47;74613.50;4995439;28;20133;-85
2022/08/14 02:58:55;;;;;;;12.45;9.70;;;;;;;-148.88;73.72;74609.44;4995420;28;20481;-85
2022/08/14 03:01:23;;;;;;;11.85;9.18;;;;;;;-148.88;74.08;74613.50;4995524;28;20122;-86
2022/08/14 03:03:50;;;;;;;11.25;9.10;;;;;;;-148.88;73.73;74609.44;4993990;28;20027;-86
2022/08/14 03:06:24;;;;;;;14.05;9.02;;;;;;;-148.88;73.48;74611.47;4995604;28;20531;-86
2022/08/14 03:08:52;;;;;;;10.95;9.55;;;;;;;-148.88;74.01;74617.56;4995296;28;20022;-86
2022/08/14 03:11:18;;;;;;;12.77;9.38;;;;;;;-148.88;74.37;74623.66;4995271;28;20034;-85
2022/08/14 03:13:46;;;;;;;11.73;8.93;;;;;;;-148.88;74.69;74621.63;4994937;28;20034;-85
2022/08/14 03:16:14;;;;;;;13.13;9.93;;;;;;;-148.88;75.10;74623.66;4995163;28;20014;-85
2022/08/14 03:18:43;;;;;;;11.88;9.63;;;;;;;-148.88;75.43;74623.66;4995026;28;20034;-85
2022/08/14 03:21:15;;;;;;;15.90;9.65;;;;;;;-148.88;75.45;74619.59;4995247;28;20026;-85
2022/08/14 03:23:44;;;;;;;12.50;9.82;;;;;;;-148.88;75.85;74631.78;4993738;28;20033;-84
2022/08/14 03:26:18;;;;;;;11.32;9.10;;;;;;;-148.88;75.63;74623.66;4994783;28;20161;-85
2022/08/14 03:28:50;;;;;;;10.77;8.65;;;;;;;-148.88;75.38;74623.66;4994744;28;20030;-85
2022/08/14 03:31:20;;;;;;;12.20;8.93;;;;;;;-148.88;75.74;74615.53;4994753;28;20029;-85
2022/08/14 03:33:46;;;;;;;11.43;9.00;;;;;;;-148.88;75.53;74623.66;4993763;28;20054;-85
2022/08/14 03:36:15;;;;;;;10.18;8.70;;;;;;;-148.88;75.80;74627.72;4993477;28;20054;-85
2022/08/14 03:38:42;;;;;;;9.85;8.85;;;;;;;-148.88;75.56;74623.66;4994679;28;20018;-84
2022/08/14 03:41:16;;;;;;;12.20;8.30;;;;;;;-148.88;75.58;74627.72;4994484;28;20030;-84
2022/08/14 03:43:43;;;;;;;10.77;8.50;;;;;;;-148.88;75.90;74627.72;4993310;28;20113;-85
2022/08/14 03:46:10;;;;;;;11.85;8.48;;;;;;;-148.88;76.13;74627.72;4994480;28;20553;-85
2022/08/14 03:48:36;;;;;;;9.65;8.65;;;;;;;-148.88;75.57;74625.69;4993612;28;20397;-85
2022/08/14 03:51:02;;;;;;;10.48;8.27;;;;;;;-148.88;75.77;74619.59;4992864;28;20030;-85
2022/08/14 03:53:27;;;;;;;9.80;7.90;;;;;;;-148.88;76.23;74625.69;4993287;28;20033;-85
2022/08/14 03:55:57;;;;;;;14.32;9.48;;;;;;;-148.88;76.87;74635.84;4993605;28;20076;-85
2022/08/14 03:58:23;;;;;;;11.75;9.00;;;;;;;-148.88;77.21;74643.97;4993362;28;20219;-85
2022/08/14 04:00:48;;;;;;;10.32;8.70;;;;;;;-148.88;77.33;74633.81;4994198;28;20362;-85
2022/08/14 04:03:14;;;;;;;12.65;8.55;;;;;;;-148.88;77.18;74635.84;4993368;28;20030;-85
2022/08/14 04:05:41;;;;;;;13.55;8.95;;;;;;;-148.88;77.04;74635.84;4994494;28;20497;-84
2022/08/14 04:08:07;;;;;;;11.95;8.32;;;;;;;-148.88;77.25;74635.84;4993135;28;20029;-85
2022/08/14 04:10:33;;;;;;;12.40;9.05;;;;;;;-148.88;77.35;74635.84;4992997;28;20478;-84
2022/08/14 04:13:04;;;;;;;11.55;8.95;;;;;;;-148.88;77.10;74639.91;4994496;28;20034;-87
2022/08/14 04:15:31;;;;;;;11.25;9.20;;;;;;;-148.88;76.84;74639.91;4992879;28;20049;-85
2022/08/14 04:18:02;;;;;;;10.32;9.27;;;;;;;-148.88;77.04;74635.84;4992914;28;20432;-84
2022/08/14 04:20:28;;;;;;;12.18;9.63;;;;;;;-148.88;77.80;74643.97;4993365;28;20081;-85
2022/08/14 04:22:53;;;;;;;10.38;9.15;;;;;;;-148.88;78.26;74646.00;4993953;28;20038;-84
2022/08/14 04:25:18;;;;;;;10.73;9.35;;;;;;;-148.88;78.43;74643.97;4993564;28;20552;-83
2022/08/14 04:27:44;;;;;;;11.95;8.93;;;;;;;-148.88;78.54;74639.91;4993699;28;20026;-83
2022/08/14 04:30:11;;;;;;;10.50;9.23;;;;;;;-148.88;78.97;74652.09;4992965;28;20030;-82
2022/08/14 04:32:36;;;;;;;10.80;8.30;;;;;;;-148.88;79.02;74639.91;4994073;28;20027;-83
2022/08/14 04:35:02;;;;;;;11.90;9.25;;;;;;;-148.88;79.57;74646.00;4999871;28;20022;-84
2022/08/14 04:45:48;;;;;;;9.98;8.85;;;;;;;-148.88;78.95;74643.97;5002355;28;20041;-85
2022/08/14 04:48:19;;;;;;;10.77;9.02;;;;;;;-148.88;79.35;74639.91;5002201;28;20062;-85
2022/08/14 04:50:50;;;;;;;11.48;9.07;;;;;;;-148.88;79.45;74635.84;5000976;28;20042;-84
2022/08/14 04:53:20;;;;;;;10.88;8.52;;;;;;;-148.88;79.76;74635.84;4992495;28;20389;-81
2022/08/14 04:55:47;;;;;;;9.98;8.70;;;;;;;-148.88;79.88;74635.84;4976296;28;20030;-83
2022/08/14 04:58:17;;;;;;;10.82;8.30;;;;;;;-148.88;79.89;74627.72;5001955;28;20475;-82
2022/08/14 05:00:45;;;;;;;11.43;9.45;;;;;;;-148.88;80.20;74623.66;4995124;28;20022;-83
2022/08/14 05:03:12;;;;;;;12.70;8.75;;;;;;;-148.88;80.08;74621.63;4999466;28;20345;-85
2022/08/14 05:05:38;;;;;;;9.95;8.45;;;;;;;-148.88;80.30;74621.63;5004131;28;20037;-85
2022/08/14 05:08:07;;;;;;;10.50;9.05;;;;;;;-148.88;80.05;74623.66;5001380;28;20034;-85
2022/08/14 05:10:33;;;;;;;11.18;8.77;;;;;;;-148.88;80.24;74623.66;5001749;28;20026;-84
2022/08/14 05:12:59;;;;;;;10.43;8.52;;;;;;;-148.88;80.25;74619.59;5001792;28;20048;-85
2022/08/14 05:15:28;;;;;;;11.70;8.60;;;;;;;-148.88;80.69;74619.59;5002298;28;20365;-85
2022/08/14 05:17:53;;;;;;;12.23;9.40;;;;;;;-148.88;80.56;74619.59;5001393;28;20030;-85
2022/08/14 05:20:19;;;;;;;10.18;8.85;;;;;;;-148.88;81.05;74627.72;5004370;28;20034;-85
2022/08/14 05:22:44;;;;;;;10.55;8.65;;;;;;;-148.88;80.73;74627.72;5004236;28;20030;-86
2022/08/14 05:25:09;;;;;;;10.57;9.48;;;;;;;-148.88;80.59;74619.59;5000103;28;20030;-85
2022/08/14 05:27:35;;;;;;;15.43;9.80;;;;;;;-148.88;80.95;74611.47;5001740;28;20405;-86
2022/08/14 05:30:04;;;;;;;12.35;9.30;;;;;;;-148.88;80.90;74611.47;5001728;28;20342;-85
2022/08/14 05:32:30;;;;;;;13.27;9.48;;;;;;;-148.88;81.04;74615.53;4998201;28;20026;-85
2022/08/14 05:34:57;;;;;;;12.27;9.48;;;;;;;-148.88;80.81;74611.47;4997370;28;20499;-84
2022/08/14 05:37:23;;;;;;;11.27;9.02;;;;;;;-148.88;80.55;74611.47;4997672;28;20029;-83
2022/08/14 05:39:48;;;;;;;10.35;9.25;;;;;;;-148.88;80.58;74609.44;4999272;28;20026;-84
2022/08/14 05:42:13;;;;;;;11.45;9.15;;;;;;;-148.88;80.91;74605.38;5001096;28;20030;-85
2022/08/14 05:44:39;;;;;;;10.10;8.93;;;;;;;-148.88;80.86;74603.34;4999471;28;20030;-84
2022/08/14 05:47:04;;;;;;;10.75;9.18;;;;;;;-148.88;80.87;74591.19;4998032;28;20397;-83
2022/08/14 05:49:30;;;;;;;11.55;9.73;;;;;;;-148.88;80.07;74593.22;4996859;28;20031;-83
2022/08/14 05:51:55;;;;;;;12.23;9.48;;;;;;;-148.88;79.71;74583.06;4996139;28;20018;-83
2022/08/14 05:54:20;;;;;;;11.15;9.18;;;;;;;-148.88;79.88;74576.97;4996161;28;20034;-83
2022/08/14 05:56:45;;;;;;;10.43;9.23;;;;;;;-148.88;80.33;74572.91;4996505;28;20558;-83
2022/08/14 05:59:11;;;;;;;11.07;9.45;;;;;;;-148.88;80.26;74562.75;4996212;28;20128;-83
2022/08/14 06:01:36;;;;;;;11.15;9.38;;;;;;;-148.88;80.44;74558.69;4996720;28;20029;-83
2022/08/14 06:04:02;;;;;;;12.10;9.70;;;;;;;-148.88;79.96;74558.69;4997619;28;20018;-83
2022/08/14 06:06:27;;;;;;;14.10;10.40;;;;;;;-148.88;80.21;74548.53;4996082;28;20029;-83
2022/08/14 06:08:52;;;;;;;15.32;9.30;;;;;;;-148.88;80.38;74542.44;4996186;28;20023;-84
2022/08/14 06:11:17;;;;;;;12.55;9.60;;;;;;;-148.88;79.56;74530.25;4996663;28;20045;-83
2022/08/14 06:13:43;;;;;;;11.93;9.45;;;;;;;-148.88;78.54;74520.09;4995725;28;20034;-83
2022/08/14 06:16:09;;;;;;;13.70;9.43;;;;;;;-148.88;78.88;74514.00;4995098;28;20022;-83
2022/08/14 06:18:35;;;;;;;11.57;8.55;;;;;;;-148.88;78.40;74503.84;4997758;28;20074;-83
2022/08/14 06:21:02;;;;;;;10.20;9.18;;;;;;;-148.88;78.72;74493.72;4998664;28;20073;-85
2022/08/14 06:23:27;;;;;;;9.73;8.75;;;;;;;-148.88;78.98;74485.59;4999692;28;20028;-86
2022/08/14 06:25:53;;;;;;;11.98;9.00;;;;;;;-148.88;78.87;74485.59;4998005;28;20035;-84
2022/08/14 06:28:22;;;;;;;10.52;9.10;;;;;;;-148.88;78.21;74477.47;4997034;28;20096;-84
2022/08/14 06:30:48;;;;;;;11.32;9.05;;;;;;;-148.88;78.23;74469.34;4998110;28;20022;-85
2022/08/14 06:33:18;;;;;;;10.38;9.20;;;;;;;-148.88;78.43;74465.28;4999021;28;20033;-85
2022/08/14 06:35:48;;;;;;;11.50;8.90;;;;;;;-148.88;78.07;74449.03;4997098;28;20027;-83
2022/08/14 06:38:20;;;;;;;10.07;8.68;;;;;;;-148.88;76.66;74438.88;4997902;28;20117;-84
2022/08/14 06:40:46;;;;;;;11.70;9.05;;;;;;;-148.88;76.95;74428.72;4996697;28;20026;-85
2022/08/14 06:43:11;;;;;;;10.63;8.85;;;;;;;-148.88;75.35;74412.47;4996100;28;20080;-82
2022/08/14 06:45:39;;;;;;;12.45;8.65;;;;;;;-148.88;76.14;74400.31;4995370;28;20392;-83
2022/08/14 06:48:18;;;;;;;12.55;8.80;;;;;;;-148.88;75.85;74396.25;4996285;28;20030;-83
2022/08/14 06:50:47;;;;;;;9.25;8.20;;;;;;;-148.88;76.38;74386.09;4995722;28;20504;-85
2022/08/14 06:53:15;;;;;;;12.43;8.15;;;;;;;-148.88;76.28;74375.94;4995030;28;20573;-84
2022/08/14 06:55:41;;;;;;;11.57;9.27;;;;;;;-148.88;75.63;74367.81;4994919;28;20018;-84
2022/08/14 06:58:11;;;;;;;10.20;8.38;;;;;;;-148.88;73.02;74333.28;4996083;28;20031;-85
2022/08/14 07:00:37;;;;;;;9.98;8.45;;;;;;;-148.88;73.07;74325.19;4995057;28;20580;-86
2022/08/14 07:05:47;;;;;;;;;;;;;;;-148.88;73.00;74315.03;4996218;28;20030;-85
2022/08/14 07:08:21;;;;;;;9.82;8.20;;;;;;;-148.88;73.95;74306.91;4995622;28;19910;-85
2022/08/14 07:10:53;;;;;;;10.50;8.25;;;;;;;-148.88;73.18;74298.78;4995991;28;20084;-86
2022/08/14 07:13:19;;;;;;;12.80;8.23;;;;;;;-148.88;72.64;74280.50;4995462;28;20030;-83
2022/08/14 07:15:51;;;;;;;9.88;7.85;;;;;;;-148.88;72.94;74278.47;4994590;28;20018;-86
2022/08/14 07:18:23;;;;;;;10.57;8.07;;;;;;;-148.88;71.63;74264.25;4994790;28;20029;-87
2022/08/14 07:20:49;;;;;;;9.10;8.20;;;;;;;-148.88;72.31;74248.00;4994653;28;20133;-86
2022/08/14 07:23:15;;;;;;;9.38;7.95;;;;;;;-148.88;71.59;74223.66;4994366;28;20054;-87
2022/08/14 07:25:42;;;;;;;12.02;8.23;;;;;;;-148.88;69.58;74217.56;4994488;28;20026;-87
2022/08/14 07:28:10;;;;;;;10.00;8.15;;;;;;;-148.88;69.06;74193.19;4993887;28;20044;-88
2022/08/14 07:30:35;;;;;;;9.85;7.88;;;;;;;-148.88;68.69;74187.09;4995359;28;20037;-88
2022/08/14 07:33:02;;;;;;;9.88;7.55;;;;;;;-148.88;68.44;74174.91;4994873;28;20034;-87
2022/08/14 07:35:27;;;;;;;10.30;7.85;;;;;;;-148.88;68.49;74164.78;4993475;28;20392;-87
2022/08/14 07:37:53;;;;;;;10.77;7.65;;;;;;;-148.88;67.94;74156.66;4993633;28;20026;-90
2022/08/14 07:40:18;;;;;;;12.68;8.65;;;;;;;-148.88;66.76;74124.16;4995179;28;20389;-88
2022/08/14 07:42:43;;;;;;;10.30;7.70;;;;;;;-148.88;66.33;74107.91;4993643;28;20027;-89
2022/08/14 07:45:09;;;;;;;9.50;7.95;;;;;;;-148.88;66.05;74093.72;4994636;28;20026;-90
2022/08/14 07:47:38;;;;;;;10.27;7.82;;;;;;;-148.88;65.85;74079.50;4993672;28;20042;-89
2022/08/14 07:50:11;;;;;;;10.20;7.90;;;;;;;-148.88;64.98;74061.22;4993492;28;20034;-88
2022/08/14 07:52:37;;;;;;;9.95;7.30;;;;;;;-148.88;64.61;74047.00;4993586;28;20113;-89
2022/08/14 07:55:03;;;;;;;10.65;8.07;;;;;;;-148.88;63.64;74018.59;4993499;28;20438;-88
2022/08/14 07:57:29;;;;;;;9.15;7.10;;;;;;;-148.88;63.49;74026.72;4993610;28;20054;-88
2022/08/14 07:59:54;;;;;;;9.95;7.90;;;;;;;-148.88;65.76;74004.38;4993747;28;20459;-89
2022/08/14 08:02:20;;;;;;;9.30;7.80;;;;;;;-148.88;62.27;74002.34;4993720;28;20026;-89
2022/08/14 08:04:48;;;;;;;9.68;7.40;;;;;;;-148.88;63.73;73998.28;4993573;28;20022;-90
2022/08/14 08:07:14;;;;;;;9.32;7.70;;;;;;;-148.88;62.29;73977.97;4994099;28;20101;-90
2022/08/14 08:09:49;;;;;;;9.00;7.63;;;;;;;-148.88;61.37;73957.69;4994038;28;20069;-89
2022/08/14 08:12:17;;;;;;;10.57;8.25;;;;;;;-148.88;60.66;73957.69;4993441;28;20022;-88
2022/08/14 08:14:43;;;;;;;10.10;8.23;;;;;;;-148.88;61.57;73949.56;4992940;28;20058;-90
2022/08/14 08:17:09;;;;;;;9.70;7.35;;;;;;;-148.88;60.76;73941.44;4994558;28;20026;-88
2022/08/14 08:19:36;;;;;;;8.88;7.80;;;;;;;-148.88;61.36;73937.38;4994223;28;20100;-90
2022/08/14 08:22:02;;;;;;;9.10;7.43;;;;;;;-148.88;60.84;73927.22;4992773;28;20050;-87
2022/08/14 08:24:28;;;;;;;9.45;7.90;;;;;;;-148.88;61.33;73917.06;4993322;28;20036;-87
2022/08/14 08:26:53;;;;;;;9.77;7.75;;;;;;;-148.88;58.84;73904.88;4992849;28;20389;-89
2022/08/14 08:29:20;;;;;;;8.35;7.43;;;;;;;-148.88;58.59;73900.81;4992999;28;20475;-88
2022/08/14 08:31:49;;;;;;;9.40;7.22;;;;;;;-148.88;58.15;73900.81;4993867;28;20037;-89
2022/08/14 08:34:15;;;;;;;9.70;7.60;;;;;;;-148.88;58.57;73876.47;4992782;28;20408;-88
2022/08/14 08:36:42;;;;;;;9.68;7.20;;;;;;;-148.88;58.04;73868.34;4994451;28;20029;-89
2022/08/14 08:39:08;;;;;;;8.40;7.20;;;;;;;-148.88;57.75;73846.00;4993693;28;20027;-88
2022/08/14 08:41:46;;;;;;;10.93;7.03;;;;;;;-148.88;56.98;73843.97;4994549;28;20033;-87
2022/08/14 08:44:12;;;;;;;9.90;7.57;;;;;;;-148.88;55.46;73815.56;4994324;28;20030;-89
2022/08/14 08:46:38;;;;;;;8.52;7.07;;;;;;;-148.88;55.02;73807.44;4993189;28;20117;-89
2022/08/14 08:49:05;;;;;;;9.98;7.70;;;;;;;-148.88;54.46;73791.19;4993533;28;20501;-88
2022/08/14 08:51:46;;;;;;;10.93;7.60;;;;;;;-148.88;54.75;73791.19;4993739;28;20205;-91
2022/08/14 08:54:14;;;;;;;8.77;6.95;;;;;;;-148.88;54.16;73770.91;4993715;28;20109;-87
2022/08/14 08:56:54;;;;;;;10.70;7.13;;;;;;;-148.88;53.81;73764.81;4994266;28;20027;-89
2022/08/14 08:59:25;;;;;;;12.20;7.40;;;;;;;-148.88;53.24;73742.47;4994795;28;20030;-90
2022/08/14 09:01:56;;;;;;;8.95;7.82;;;;;;;-148.88;53.25;73736.38;4993581;28;20500;-86
2022/08/14 09:04:21;;;;;;;9.93;7.82;;;;;;;-148.88;52.60;73705.94;4992877;28;20396;-87
2022/08/14 09:06:49;;;;;;;8.18;7.13;;;;;;;-148.88;52.42;73701.88;4992923;28;20164;-89
2022/08/14 09:09:31;;;;;;;9.48;7.32;;;;;;;-148.88;52.86;73689.69;4994254;28;20027;-86
2022/08/14 09:11:58;;;;;;;7.80;7.00;;;;;;;-148.88;52.46;73669.38;4992686;28;20022;-88
2022/08/14 09:14:29;;;;;;;9.52;7.97;;;;;;;-148.88;52.52;73661.25;4992621;28;20026;-86
2022/08/14 09:16:56;;;;;;;8.13;7.20;;;;;;;-148.88;52.43;73632.84;4994078;28;20034;-87
2022/08/14 09:19:22;;;;;;;8.23;7.10;;;;;;;-148.88;51.81;73608.47;4993975;28;20026;-87
2022/08/14 09:21:48;;;;;;;8.88;7.57;;;;;;;-148.88;51.89;73584.13;4994123;28;20048;-86
2022/08/14 09:24:13;;;;;;;9.52;7.57;;;;;;;-148.88;51.67;73555.69;4992778;28;20023;-86
2022/08/14 09:26:40;;;;;;;11.27;7.57;;;;;;;-148.88;50.21;73551.63;4993838;28;20023;-85
2022/08/14 09:29:07;;;;;;;8.70;7.43;;;;;;;-148.88;50.33;73553.66;4992897;28;20029;-89
2022/08/14 09:31:34;;;;;;;8.60;7.18;;;;;;;-148.88;49.52;73569.91;4993328;28;20050;-87
2022/08/14 09:34:08;;;;;;;8.65;7.47;;;;;;;-148.88;49.82;73511.03;4993649;28;20037;-87
2022/08/14 09:37:11;;;;;;;9.73;7.15;;;;;;;-148.88;48.93;73484.66;4992225;28;20026;-87
2022/08/14 09:40:04;;;;;;;11.03;7.27;;;;;;;-148.88;48.50;73435.94;4993985;28;20023;-87
2022/08/14 09:42:49;;;;;;;10.85;7.53;;;;;;;-148.88;47.53;73427.81;4992636;28;20463;-88
2022/08/14 09:45:17;;;;;;;9.85;7.15;;;;;;;-148.88;47.09;73405.47;4993786;28;20044;-87
2022/08/14 09:47:52;;;;;;;10.63;7.35;;;;;;;-148.88;47.63;73373.00;4992559;28;20026;-87
2022/08/14 09:50:21;;;;;;;7.63;6.80;;;;;;;-148.88;45.92;73352.69;4994522;28;20030;-89
2022/08/14 09:53:03;;;;;;;9.63;7.07;;;;;;;-148.88;45.30;73364.88;4997144;28;20393;-87
2022/08/14 09:55:32;;;;;;;9.73;7.43;;;;;;;-148.88;45.24;73332.41;4997874;28;20512;-86
2022/08/14 09:58:11;;;;;;;8.48;6.60;;;;;;;-148.88;43.16;73330.38;4998301;28;20027;-87
2022/08/14 10:00:41;;;;;;;10.52;6.70;;;;;;;-148.88;44.02;73318.19;4996123;28;20456;-85
2022/08/14 10:03:08;;;;;;;9.25;7.07;;;;;;;-148.88;43.85;73356.75;4995864;28;20760;-86
2022/08/14 10:05:35;;;;;;;8.35;6.30;;;;;;;-148.88;43.21;73352.69;4995802;28;20022;-86
2022/08/14 10:08:01;;;;;;;9.00;7.28;;;;;;;-148.88;43.39;73334.44;4997213;28;20489;-87
2022/08/14 10:10:39;;;;;;;8.15;7.35;;;;;;;-148.88;43.33;73308.03;4996016;28;20401;-88
2022/08/14 10:13:07;;;;;;;7.70;6.80;;;;;;;-148.88;42.77;73295.84;4997305;28;20026;-86
2022/08/14 10:15:43;;;;;;;8.57;6.97;;;;;;;-148.88;42.45;73259.31;4997144;28;20468;-85
2022/08/14 10:18:13;;;;;;;9.02;7.07;;;;;;;-148.88;42.05;73230.91;4997392;28;20481;-86
2022/08/14 10:20:52;;;;;;;8.18;7.05;;;;;;;-148.88;41.36;73210.59;4996379;28;20022;-85
2022/08/14 10:23:23;;;;;;;9.38;7.13;;;;;;;-148.88;42.43;73263.38;4996627;28;20045;-88
2022/08/14 10:25:50;;;;;;;8.50;6.43;;;;;;;-148.88;41.82;73234.97;4995724;28;20061;-86
2022/08/14 10:28:21;;;;;;;7.20;6.50;;;;;;;-148.88;41.78;73210.59;4996588;28;20530;-86
2022/08/14 10:30:51;;;;;;;7.93;6.60;;;;;;;-148.88;40.77;73165.94;4996659;28;20026;-88
2022/08/14 10:33:28;;;;;;;8.15;7.15;;;;;;;-148.88;40.20;73163.91;4995573;28;20481;-87
2022/08/14 10:35:54;;;;;;;9.52;6.57;;;;;;;-148.88;40.81;73125.34;4995497;28;20018;-88
2022/08/14 10:38:27;;;;;;;7.30;6.30;;;;;;;-148.88;40.65;73113.16;4995574;28;20508;-87
2022/08/14 10:40:53;;;;;;;7.50;6.63;;;;;;;-148.88;39.47;73084.75;4997638;28;20030;-87
2022/08/14 10:43:24;;;;;;;9.63;7.22;;;;;;;-148.88;39.23;73070.53;4995942;28;20370;-87
2022/08/14 10:45:56;;;;;;;8.02;7.03;;;;;;;-148.88;39.86;73084.75;4995417;28;20034;-86
2022/08/14 10:48:22;;;;;;;8.10;6.53;;;;;;;-148.88;39.68;73058.34;4996467;28;20436;-88
2022/08/14 10:50:50;;;;;;;7.55;6.55;;;;;;;-148.88;38.98;73040.09;4996433;28;20481;-86
2022/08/14 10:53:26;;;;;;;9.10;6.57;;;;;;;-148.88;38.63;73036.03;4994917;28;20030;-86
2022/08/14 10:55:57;;;;;;;9.13;6.70;;;;;;;-148.88;38.88;73005.59;4995122;28;20074;-86
2022/08/14 10:58:28;;;;;;;7.05;6.25;;;;;;;-148.88;38.76;72975.13;4995309;28;20022;-88
2022/08/14 11:00:57;;;;;;;8.20;6.30;;;;;;;-148.88;38.04;72952.81;4993751;28;20109;-87
2022/08/14 11:03:24;;;;;;;8.52;6.53;;;;;;;-148.88;37.78;72967.00;4995190;28;20026;-87
2022/08/14 11:05:51;;;;;;;7.05;5.90;;;;;;;-148.88;36.80;72995.44;4994824;28;20393;-87
2022/08/14 11:08:28;;;;;;;7.03;6.32;;;;;;;-148.88;37.29;72995.44;4995534;28;20459;-87
2022/08/14 11:10:55;;;;;;;8.27;6.18;;;;;;;-148.88;37.68;72975.13;4995057;28;20044;-88
2022/08/14 11:13:23;;;;;;;7.15;6.10;;;;;;;-148.88;38.03;72979.19;4994487;28;20031;-86
2022/08/14 11:15:50;;;;;;;7.35;6.20;;;;;;;-148.88;37.73;72967.00;4996054;28;20023;-87
2022/08/14 11:18:17;;;;;;;7.80;6.18;;;;;;;-148.88;37.24;72942.66;4994436;28;20104;-87
2022/08/14 11:20:49;;;;;;;7.18;5.80;;;;;;;-148.88;37.19;72920.34;4994939;28;20029;-86
2022/08/14 11:23:16;;;;;;;7.45;5.90;;;;;;;-148.88;36.00;72924.38;4994552;28;20022;-87
2022/08/14 11:25:44;;;;;;;10.60;5.75;;;;;;;-148.88;36.45;72952.81;4994505;28;20018;-86
2022/08/14 11:28:12;;;;;;;7.85;6.40;;;;;;;-148.88;36.75;72940.63;4994386;28;20051;-86
2022/08/14 11:30:40;;;;;;;9.02;6.57;;;;;;;-148.88;36.89;72936.56;4997387;28;20493;-87